createdAt,value
2017-08-04T00:00:43.129Z,51.16
2017-08-04T00:01:52.737Z,50.87
2017-08-04T00:03:02.664Z,51.16
2017-08-04T00:04:12.574Z,50.96
2017-08-04T00:05:22.476Z,50.87
2017-08-04T00:06:32.701Z,50.67
2017-08-04T00:07:42.307Z,50.77
2017-08-04T00:08:51.911Z,50.87
2017-08-04T00:10:02.141Z,50.38
2017-08-04T00:11:12.059Z,50.57
2017-08-04T00:12:22.282Z,50.48
2017-08-04T00:13:31.895Z,50.57
2017-08-04T00:14:41.823Z,50.77
2017-08-04T00:15:51.727Z,50.48
2017-08-04T00:17:01.659Z,50.87
2017-08-04T00:18:11.895Z,50.77
2017-08-04T00:19:22.116Z,51.06
2017-08-04T00:20:31.748Z,50.87
2017-08-04T00:21:41.663Z,51.06
2017-08-04T00:22:51.572Z,50.48
2017-08-04T00:24:01.494Z,50.48
2017-08-04T00:25:10.794Z,51.25
2017-08-04T00:26:20.394Z,51.25
2017-08-04T00:27:30.319Z,50.94
2017-08-04T00:28:40.271Z,51.06
2017-08-04T00:29:50.189Z,50.96
2017-08-04T00:31:00.412Z,51.25
2017-08-04T00:32:10.641Z,50.96
2017-08-04T00:33:20.865Z,51.16
2017-08-04T00:34:30.470Z,50.87
2017-08-04T00:35:40.399Z,50.94
2017-08-04T00:36:50.627Z,50.94
2017-08-04T00:38:00.869Z,51.13
2017-08-04T00:39:10.486Z,51.23
2017-08-04T00:40:20.114Z,51.23
2017-08-04T00:41:30.363Z,51.04
2017-08-04T00:42:39.986Z,51.04
2017-08-04T00:43:50.583Z,51.04
2017-08-04T00:45:00.192Z,50.94
2017-08-04T00:46:10.104Z,50.94
2017-08-04T00:47:20.330Z,50.94
2017-08-04T00:48:30.245Z,51.04
2017-08-04T00:49:39.862Z,50.94
2017-08-04T00:50:50.088Z,50.84
2017-08-04T00:52:00.002Z,50.94
2017-08-04T00:53:09.921Z,51.13
2017-08-04T00:54:19.854Z,50.94
2017-08-04T00:55:29.786Z,51.23
2017-08-04T00:56:40.002Z,50.57
2017-08-04T00:57:50.229Z,51.06
2017-08-04T00:59:00.135Z,51.06
2017-08-04T01:00:10.049Z,51.06
2017-08-04T01:01:19.081Z,50.77
2017-08-04T01:02:28.700Z,50.74
2017-08-04T01:03:38.318Z,50.74
2017-08-04T01:04:47.935Z,50.77
2017-08-04T01:05:58.174Z,50.67
2017-08-04T01:07:07.183Z,50.48
2017-08-04T01:08:17.102Z,50.74
2017-08-04T01:09:27.318Z,50.55
2017-08-04T01:10:37.545Z,50.48
2017-08-04T01:11:47.457Z,50.45
2017-08-04T01:12:57.365Z,50.48
2017-08-04T01:14:07.284Z,50.77
2017-08-04T01:15:16.906Z,51.04
2017-08-04T01:16:27.141Z,51.04
2017-08-04T01:17:36.774Z,51.13
2017-08-04T01:18:47.014Z,50.74
2017-08-04T01:19:57.220Z,50.74
2017-08-04T01:21:07.437Z,50.35
2017-08-04T01:22:16.750Z,50.87
2017-08-04T01:23:26.995Z,51.13
2017-08-04T01:24:37.224Z,50.74
2017-08-04T01:25:46.544Z,51.04
2017-08-04T01:26:56.147Z,50.16
2017-08-04T01:28:05.763Z,50.45
2017-08-04T01:29:15.677Z,50.45
2017-08-04T01:30:25.623Z,50.55
2017-08-04T01:31:35.864Z,50.55
2017-08-04T01:32:46.091Z,50.55
2017-08-04T01:33:56.555Z,50.26
2017-08-04T01:35:06.172Z,50.45
2017-08-04T01:36:16.400Z,50.45
2017-08-04T01:37:26.354Z,50.57
2017-08-04T01:38:36.275Z,50.55
2017-08-04T01:39:45.886Z,50.35
2017-08-04T01:40:56.136Z,50.26
2017-08-04T01:42:06.041Z,50.45
2017-08-04T01:43:15.967Z,50.96
2017-08-04T01:44:25.883Z,50.35
2017-08-04T01:45:36.092Z,50.74
2017-08-04T01:46:46.336Z,50.26
2017-08-04T01:47:55.636Z,50.55
2017-08-04T01:49:05.547Z,50.48
2017-08-04T01:50:15.464Z,50.35
2017-08-04T01:51:25.700Z,50.35
2017-08-04T01:52:35.610Z,50.35
2017-08-04T01:53:45.224Z,50.45
2017-08-04T01:54:55.456Z,50.45
2017-08-04T01:56:05.078Z,50.84
2017-08-04T01:57:14.998Z,50.35
2017-08-04T01:58:24.936Z,50.55
2017-08-04T01:59:35.152Z,50.55
2017-08-04T02:00:44.755Z,50.84
2017-08-04T02:01:54.992Z,50.84
2017-08-04T02:03:04.926Z,50.55
2017-08-04T02:04:14.853Z,50.55
2017-08-04T02:05:24.453Z,50.26
2017-08-04T02:06:34.070Z,50.84
2017-08-04T02:07:43.982Z,50.35
2017-08-04T02:08:54.216Z,50.45
2017-08-04T02:10:03.853Z,50.55
2017-08-04T02:11:13.778Z,50.45
2017-08-04T02:12:23.681Z,50.26
2017-08-04T02:13:33.927Z,50.45
2017-08-04T02:14:44.157Z,51.13
2017-08-04T02:15:54.381Z,50.84
2017-08-04T02:17:04.597Z,50.74
2017-08-04T02:18:14.507Z,50.84
2017-08-04T02:19:24.842Z,50.94
2017-08-04T02:20:35.078Z,50.84
2017-08-04T02:21:44.907Z,51.13
2017-08-04T02:22:54.221Z,50.74
2017-08-04T02:24:04.449Z,51.2
2017-08-04T02:25:14.423Z,51.3
2017-08-04T02:26:24.345Z,51.5
2017-08-04T02:27:34.577Z,51.2
2017-08-04T02:28:44.799Z,50.92
2017-08-04T02:29:54.719Z,51.4
2017-08-04T02:31:04.639Z,51.68
2017-08-04T02:32:14.882Z,51.5
2017-08-04T02:33:24.812Z,51.3
2017-08-04T02:34:34.730Z,51.56
2017-08-04T02:35:44.662Z,51.59
2017-08-04T02:36:54.288Z,51.5
2017-08-04T02:38:04.215Z,51.37
2017-08-04T02:39:14.430Z,51.56
2017-08-04T02:40:24.344Z,51.86
2017-08-04T02:41:33.951Z,52.14
2017-08-04T02:42:44.183Z,51.95
2017-08-04T02:43:54.097Z,51.86
2017-08-04T02:45:04.021Z,51.95
2017-08-04T02:46:13.948Z,51.95
2017-08-04T02:47:23.872Z,51.95
2017-08-04T02:48:33.797Z,52.05
2017-08-04T02:49:44.059Z,51.95
2017-08-04T02:50:54.287Z,52.05
2017-08-04T02:52:04.214Z,51.95
2017-08-04T02:53:14.458Z,51.95
2017-08-04T02:54:24.687Z,51.95
2017-08-04T02:55:34.610Z,51.95
2017-08-04T02:56:44.851Z,51.95
2017-08-04T02:57:54.771Z,51.86
2017-08-04T02:59:05.017Z,51.56
2017-08-04T03:00:14.946Z,51.47
2017-08-04T03:01:24.862Z,51.56
2017-08-04T03:02:34.785Z,51.56
2017-08-04T03:03:45.002Z,51.47
2017-08-04T03:04:54.609Z,51.37
2017-08-04T03:06:05.205Z,51.37
2017-08-04T03:07:14.838Z,51.47
2017-08-04T03:08:24.751Z,51.56
2017-08-04T03:09:34.664Z,51.56
2017-08-04T03:10:44.281Z,52.05
2017-08-04T03:11:54.506Z,51.95
2017-08-04T03:13:04.426Z,51.83
2017-08-04T03:14:14.343Z,51.73
2017-08-04T03:15:24.264Z,51.47
2017-08-04T03:16:33.871Z,51.37
2017-08-04T03:17:43.786Z,50.98
2017-08-04T03:18:53.702Z,51.37
2017-08-04T03:20:03.928Z,51.47
2017-08-04T03:21:13.534Z,50.89
2017-08-04T03:22:23.457Z,50.79
2017-08-04T03:23:33.059Z,50.89
2017-08-04T03:24:42.970Z,50.7
2017-08-04T03:25:53.197Z,50.79
2017-08-04T03:27:03.406Z,50.98
2017-08-04T03:28:13.640Z,51.08
2017-08-04T03:29:23.692Z,51.18
2017-08-04T03:30:33.923Z,51.18
2017-08-04T03:31:44.144Z,50.79
2017-08-04T03:32:53.782Z,50.89
2017-08-04T03:34:03.693Z,50.89
2017-08-04T03:35:12.702Z,50.79
2017-08-04T03:36:22.625Z,50.7
2017-08-04T03:37:32.858Z,51.01
2017-08-04T03:38:42.785Z,50.72
2017-08-04T03:39:52.719Z,50.43
2017-08-04T03:41:02.324Z,50.24
2017-08-04T03:42:11.923Z,50.43
2017-08-04T03:43:21.833Z,50.52
2017-08-04T03:44:31.454Z,50.72
2017-08-04T03:45:41.363Z,50.82
2017-08-04T03:46:51.272Z,50.6
2017-08-04T03:48:01.487Z,50.79
2017-08-04T03:49:11.091Z,50.79
2017-08-04T03:50:21.317Z,50.89
2017-08-04T03:51:30.929Z,50.7
2017-08-04T03:52:40.850Z,51.01
2017-08-04T03:53:51.075Z,50.79
2017-08-04T03:55:01.291Z,51.08
2017-08-04T03:56:11.211Z,50.98
2017-08-04T03:57:21.129Z,50.4
2017-08-04T03:58:31.350Z,50.4
2017-08-04T03:59:41.261Z,50.79
2017-08-04T04:00:50.876Z,50.4
2017-08-04T04:02:00.492Z,50.43
2017-08-04T04:03:10.404Z,50.6
2017-08-04T04:04:20.331Z,50.43
2017-08-04T04:05:30.248Z,50.33
2017-08-04T04:06:40.179Z,50.72
2017-08-04T04:07:49.794Z,50.43
2017-08-04T04:09:00.046Z,50.52
2017-08-04T04:10:10.288Z,50.43
2017-08-04T04:11:19.916Z,50.43
2017-08-04T04:12:29.522Z,50.43
2017-08-04T04:13:39.737Z,50.7
2017-08-04T04:14:49.650Z,50.24
2017-08-04T04:15:59.576Z,50.43
2017-08-04T04:17:09.794Z,50.24
2017-08-04T04:18:19.425Z,50.33
2017-08-04T04:19:29.651Z,50.52
2017-08-04T04:20:39.565Z,50.6
2017-08-04T04:21:49.479Z,50.33
2017-08-04T04:22:59.429Z,50.21
2017-08-04T04:24:09.363Z,50.24
2017-08-04T04:25:18.999Z,50.33
2017-08-04T04:26:28.934Z,50.43
2017-08-04T04:27:39.156Z,50.33
2017-08-04T04:28:49.497Z,50.33
2017-08-04T04:29:59.802Z,50.52
2017-08-04T04:31:09.727Z,50.62
2017-08-04T04:32:19.648Z,50.62
2017-08-04T04:33:28.996Z,50.43
2017-08-04T04:34:38.923Z,50.4
2017-08-04T04:35:48.836Z,50.33
2017-08-04T04:36:59.056Z,50.33
2017-08-04T04:38:08.979Z,50.5
2017-08-04T04:39:18.578Z,50.82
2017-08-04T04:40:28.534Z,50.52
2017-08-04T04:41:38.169Z,50.43
2017-08-04T04:42:48.392Z,50.43
2017-08-04T04:43:58.614Z,50.31
2017-08-04T04:45:08.240Z,50.31
2017-08-04T04:46:18.460Z,50.33
2017-08-04T04:47:28.378Z,50.92
2017-08-04T04:48:37.696Z,50.24
2017-08-04T04:49:47.960Z,50.52
2017-08-04T04:50:57.893Z,50.62
2017-08-04T04:52:07.809Z,50.33
2017-08-04T04:53:17.737Z,50.52
2017-08-04T04:54:27.364Z,50.52
2017-08-04T04:55:37.296Z,50.72
2017-08-04T04:56:47.525Z,50.43
2017-08-04T04:57:57.443Z,50.14
2017-08-04T04:59:07.354Z,50.14
2017-08-04T05:00:16.977Z,50.43
2017-08-04T05:01:27.191Z,50.04
2017-08-04T05:02:37.098Z,49.95
2017-08-04T05:03:46.728Z,50.14
2017-08-04T05:04:56.339Z,49.65
2017-08-04T05:06:06.265Z,49.75
2017-08-04T05:07:16.189Z,49.39
2017-08-04T05:08:26.452Z,49.19
2017-08-04T05:09:36.683Z,49.1
2017-08-04T05:10:46.924Z,49
2017-08-04T05:11:56.546Z,48.9
2017-08-04T05:13:06.794Z,49
2017-08-04T05:14:16.103Z,48.9
2017-08-04T05:15:26.343Z,48.9
2017-08-04T05:16:36.293Z,48.71
2017-08-04T05:17:46.225Z,49.1
2017-08-04T05:18:55.845Z,49.12
2017-08-04T05:20:05.487Z,48.32
2017-08-04T05:21:14.808Z,48.93
2017-08-04T05:22:24.416Z,48.71
2017-08-04T05:23:34.026Z,48.74
2017-08-04T05:24:43.955Z,48.74
2017-08-04T05:25:53.889Z,48.74
2017-08-04T05:27:03.804Z,48.83
2017-08-04T05:28:13.752Z,48.64
2017-08-04T05:29:23.972Z,48.74
2017-08-04T05:30:34.188Z,48.83
2017-08-04T05:31:43.790Z,48.64
2017-08-04T05:32:53.700Z,48.64
2017-08-04T05:34:03.922Z,48.35
2017-08-04T05:35:14.145Z,48.57
2017-08-04T05:36:24.058Z,48.57
2017-08-04T05:37:33.979Z,48.47
2017-08-04T05:38:44.202Z,48.27
2017-08-04T05:39:54.127Z,48.37
2017-08-04T05:41:03.735Z,48.27
2017-08-04T05:42:14.342Z,48.27
2017-08-04T05:43:24.618Z,48.57
2017-08-04T05:44:34.519Z,48.66
2017-08-04T05:45:44.766Z,48.47
2017-08-04T05:46:54.379Z,48.47
2017-08-04T05:48:04.012Z,48.47
2017-08-04T05:49:14.027Z,48.47
2017-08-04T05:50:23.937Z,48.47
2017-08-04T05:51:32.921Z,48.27
2017-08-04T05:52:43.146Z,48.37
2017-08-04T05:53:52.766Z,48.57
2017-08-04T05:55:02.369Z,48.18
2017-08-04T05:56:12.610Z,48.57
2017-08-04T05:57:22.527Z,48.27
2017-08-04T05:58:32.131Z,48.57
2017-08-04T05:59:42.358Z,48.37
2017-08-04T06:00:52.582Z,48.27
2017-08-04T06:02:02.501Z,48.37
2017-08-04T06:03:12.133Z,48.47
2017-08-04T06:04:22.069Z,48.27
2017-08-04T06:05:32.392Z,48.47
2017-08-04T06:06:42.608Z,48.47
2017-08-04T06:07:52.524Z,48.27
2017-08-04T06:09:02.497Z,48.37
2017-08-04T06:10:12.769Z,48.57
2017-08-04T06:11:22.758Z,48.66
2017-08-04T06:12:33.022Z,47.98
2017-08-04T06:13:43.665Z,48.66
2017-08-04T06:14:52.990Z,48.66
2017-08-04T06:16:02.610Z,48.57
2017-08-04T06:17:12.216Z,48.66
2017-08-04T06:18:22.125Z,48.66
2017-08-04T06:19:32.357Z,48.66
2017-08-04T06:20:41.980Z,48.47
2017-08-04T06:21:51.595Z,48.57
2017-08-04T06:23:01.834Z,48.18
2017-08-04T06:24:12.065Z,48.66
2017-08-04T06:25:22.300Z,48.76
2017-08-04T06:26:31.909Z,48.66
2017-08-04T06:27:41.825Z,48.57
2017-08-04T06:28:51.754Z,48.47
2017-08-04T06:30:01.993Z,48.57
2017-08-04T06:31:12.224Z,48.66
2017-08-04T06:32:22.479Z,48.85
2017-08-04T06:33:32.473Z,48.66
2017-08-04T06:34:42.403Z,48.76
2017-08-04T06:35:52.326Z,48.76
2017-08-04T06:37:02.549Z,48.85
2017-08-04T06:38:12.163Z,48.85
2017-08-04T06:39:22.095Z,48.47
2017-08-04T06:40:32.355Z,48.59
2017-08-04T06:41:42.573Z,48.47
2017-08-04T06:42:52.799Z,48.37
2017-08-04T06:44:03.030Z,49.05
2017-08-04T06:45:12.978Z,48.95
2017-08-04T06:46:22.606Z,48.66
2017-08-04T06:47:32.538Z,48.69
2017-08-04T06:48:42.764Z,49.05
2017-08-04T06:49:52.689Z,49.15
2017-08-04T06:51:02.290Z,48.88
2017-08-04T06:52:12.210Z,48.66
2017-08-04T06:53:22.133Z,49.05
2017-08-04T06:54:32.372Z,49.07
2017-08-04T06:55:42.321Z,48.69
2017-08-04T06:56:52.237Z,48.49
2017-08-04T06:58:01.243Z,48.49
2017-08-04T06:59:11.179Z,48.59
2017-08-04T07:00:21.101Z,48.78
2017-08-04T07:01:31.027Z,48.78
2017-08-04T07:02:41.274Z,48.78
2017-08-04T07:03:51.205Z,48.49
2017-08-04T07:05:01.138Z,49.07
2017-08-04T07:06:10.735Z,49.07
2017-08-04T07:07:20.040Z,49.07
2017-08-04T07:08:29.966Z,49.07
2017-08-04T07:09:39.578Z,49.07
2017-08-04T07:10:49.229Z,49.07
2017-08-04T07:11:58.863Z,48.78
2017-08-04T07:13:07.860Z,49.07
2017-08-04T07:14:17.776Z,48.69
2017-08-04T07:15:27.417Z,48.69
2017-08-04T07:16:37.632Z,48.78
2017-08-04T07:17:47.259Z,48.88
2017-08-04T07:18:56.862Z,48.39
2017-08-04T07:20:05.864Z,48.39
2017-08-04T07:21:15.496Z,48.69
2017-08-04T07:22:24.869Z,48.61
2017-08-04T07:23:35.083Z,48.32
2017-08-04T07:24:44.691Z,48.39
2017-08-04T07:25:54.304Z,48.39
2017-08-04T07:27:04.229Z,48.59
2017-08-04T07:28:13.885Z,48.39
2017-08-04T07:29:23.795Z,48.39
2017-08-04T07:30:34.027Z,48.3
2017-08-04T07:31:44.251Z,48.39
2017-08-04T07:32:54.495Z,48.49
2017-08-04T07:34:04.426Z,48.61
2017-08-04T07:35:14.041Z,48.49
2017-08-04T07:36:23.958Z,48.39
2017-08-04T07:37:34.201Z,48.52
2017-08-04T07:38:44.127Z,48.71
2017-08-04T07:39:54.356Z,48.3
2017-08-04T07:41:04.586Z,48.32
2017-08-04T07:42:14.505Z,48.52
2017-08-04T07:43:24.435Z,48.59
2017-08-04T07:44:34.356Z,48.22
2017-08-04T07:45:44.278Z,48.52
2017-08-04T07:46:54.199Z,48.52
2017-08-04T07:48:04.117Z,48.22
2017-08-04T07:49:12.799Z,48.13
2017-08-04T07:50:23.034Z,48.42
2017-08-04T07:51:33.258Z,48.42
2017-08-04T07:52:43.178Z,48.42
2017-08-04T07:53:53.122Z,48.42
2017-08-04T07:55:03.361Z,48.52
2017-08-04T07:56:13.275Z,48.03
2017-08-04T07:57:23.215Z,47.55
2017-08-04T07:58:33.136Z,47.76
2017-08-04T07:59:42.443Z,47.55
2017-08-04T08:00:52.659Z,47.66
2017-08-04T08:02:02.575Z,47.28
2017-08-04T08:03:12.188Z,47.57
2017-08-04T08:04:22.410Z,47.38
2017-08-04T08:05:32.315Z,47.76
2017-08-04T08:06:42.231Z,46.98
2017-08-04T08:07:52.468Z,46.81
2017-08-04T08:09:02.696Z,46.72
2017-08-04T08:10:12.616Z,46.62
2017-08-04T08:11:22.223Z,46.33
2017-08-04T08:12:32.159Z,46.23
2017-08-04T08:13:41.804Z,45.77
2017-08-04T08:14:51.754Z,46.06
2017-08-04T08:16:01.684Z,45.97
2017-08-04T08:17:11.611Z,45.87
2017-08-04T08:18:21.530Z,46.25
2017-08-04T08:19:31.457Z,45.77
2017-08-04T08:20:40.456Z,45.4
2017-08-04T08:21:51.084Z,45.4
2017-08-04T08:23:00.723Z,45.21
2017-08-04T08:24:11.009Z,45.11
2017-08-04T08:25:20.329Z,44.74
2017-08-04T08:26:30.297Z,44.45
2017-08-04T08:27:40.238Z,44.45
2017-08-04T08:28:50.476Z,44.55
2017-08-04T08:30:00.709Z,44.84
2017-08-04T08:31:10.957Z,44.84
2017-08-04T08:32:20.889Z,45.23
2017-08-04T08:33:30.822Z,45.31
2017-08-04T08:34:40.759Z,45.5
2017-08-04T08:35:50.675Z,45.79
2017-08-04T08:37:00.606Z,45.4
2017-08-04T08:38:10.841Z,45.79
2017-08-04T08:39:20.512Z,45.6
2017-08-04T08:40:30.456Z,44.72
2017-08-04T08:41:40.380Z,45.04
2017-08-04T08:42:50.317Z,45.32
2017-08-04T08:43:59.943Z,44.65
2017-08-04T08:45:09.887Z,44.67
2017-08-04T08:46:19.804Z,44.48
2017-08-04T08:47:29.735Z,44.67
2017-08-04T08:48:39.956Z,44.09
2017-08-04T08:49:50.203Z,44.18
2017-08-04T08:50:59.820Z,43.91
2017-08-04T08:52:10.066Z,43.23
2017-08-04T08:53:19.696Z,43.43
2017-08-04T08:54:29.611Z,43.25
2017-08-04T08:55:39.531Z,43.35
2017-08-04T08:56:49.149Z,43.91
2017-08-04T08:57:58.759Z,43.43
2017-08-04T08:59:08.986Z,42.86
2017-08-04T09:00:19.220Z,42.38
2017-08-04T09:01:29.143Z,42.2
2017-08-04T09:02:39.079Z,42.12
2017-08-04T09:03:49.032Z,42.12
2017-08-04T09:04:58.961Z,42.41
2017-08-04T09:06:08.262Z,42.59
2017-08-04T09:07:18.169Z,43.08
2017-08-04T09:08:28.391Z,43.44
2017-08-04T09:09:38.638Z,44.03
2017-08-04T09:10:48.868Z,44.1
2017-08-04T09:11:59.107Z,44.4
2017-08-04T09:13:09.034Z,44.98
2017-08-04T09:14:18.967Z,44.96
2017-08-04T09:15:28.893Z,45.35
2017-08-04T09:16:38.508Z,45.64
2017-08-04T09:17:48.737Z,45.42
2017-08-04T09:18:58.973Z,46.2
2017-08-04T09:20:08.892Z,45.91
2017-08-04T09:21:19.118Z,46.01
2017-08-04T09:22:29.341Z,46.11
2017-08-04T09:23:38.964Z,46.11
2017-08-04T09:24:48.567Z,46.47
2017-08-04T09:25:58.483Z,46.96
2017-08-04T09:27:08.817Z,46.77
2017-08-04T09:28:18.736Z,46.77
2017-08-04T09:29:28.672Z,47.05
2017-08-04T09:30:38.599Z,46.77
2017-08-04T09:31:48.520Z,46.96
2017-08-04T09:32:58.744Z,47.15
2017-08-04T09:34:08.062Z,46.86
2017-08-04T09:35:17.676Z,46.84
2017-08-04T09:36:27.593Z,47.71
2017-08-04T09:37:37.518Z,47.52
2017-08-04T09:38:47.134Z,47.42
2017-08-04T09:39:56.748Z,47.52
2017-08-04T09:41:06.371Z,47.52
2017-08-04T09:42:16.598Z,47.32
2017-08-04T09:43:26.516Z,47.61
2017-08-04T09:44:36.748Z,47.61
2017-08-04T09:45:46.664Z,47.61
2017-08-04T09:46:56.282Z,47.32
2017-08-04T09:48:06.194Z,47.42
2017-08-04T09:49:15.827Z,47.42
2017-08-04T09:50:25.437Z,47.42
2017-08-04T09:51:35.384Z,47.91
2017-08-04T09:52:45.221Z,47.71
2017-08-04T09:53:55.141Z,47.81
2017-08-04T09:55:04.749Z,48
2017-08-04T09:56:14.686Z,47.98
2017-08-04T09:57:24.629Z,47.88
2017-08-04T09:58:34.842Z,47.98
2017-08-04T09:59:45.088Z,47.88
2017-08-04T10:00:55.049Z,47.98
2017-08-04T10:02:04.678Z,48.78
2017-08-04T10:03:14.596Z,48.37
2017-08-04T10:04:24.544Z,48.57
2017-08-04T10:05:34.782Z,48.57
2017-08-04T10:06:44.393Z,48.37
2017-08-04T10:07:54.352Z,48.37
2017-08-04T10:09:04.265Z,48.57
2017-08-04T10:10:13.589Z,48.75
2017-08-04T10:11:23.812Z,48.66
2017-08-04T10:12:34.086Z,48.75
2017-08-04T10:13:44.011Z,48.95
2017-08-04T10:14:53.942Z,48.95
2017-08-04T10:16:03.563Z,48.57
2017-08-04T10:17:13.192Z,48.54
2017-08-04T10:18:22.810Z,48.57
2017-08-04T10:19:33.057Z,48.95
2017-08-04T10:20:42.997Z,48.57
2017-08-04T10:21:53.236Z,48.85
2017-08-04T10:23:03.512Z,48.95
2017-08-04T10:24:13.460Z,48.95
2017-08-04T10:25:23.718Z,48.85
2017-08-04T10:26:33.979Z,48.85
2017-08-04T10:27:43.956Z,48.85
2017-08-04T10:28:54.202Z,48.95
2017-08-04T10:30:04.491Z,48.95
2017-08-04T10:31:14.443Z,48.57
2017-08-04T10:32:24.412Z,48.66
2017-08-04T10:33:34.394Z,49.05
2017-08-04T10:34:44.029Z,48.27
2017-08-04T10:35:53.988Z,48.85
2017-08-04T10:37:03.931Z,48.95
2017-08-04T10:38:13.854Z,48.64
2017-08-04T10:39:24.474Z,49.05
2017-08-04T10:40:34.416Z,48.93
2017-08-04T10:41:44.386Z,48.85
2017-08-04T10:42:54.656Z,48.75
2017-08-04T10:44:04.267Z,48.95
2017-08-04T10:45:14.203Z,48.75
2017-08-04T10:46:24.127Z,48.83
2017-08-04T10:47:34.392Z,48.93
2017-08-04T10:48:44.669Z,48.85
2017-08-04T10:49:53.978Z,49.15
2017-08-04T10:51:04.240Z,49.05
2017-08-04T10:52:14.181Z,48.93
2017-08-04T10:53:24.104Z,48.93
2017-08-04T10:54:34.018Z,48.85
2017-08-04T10:55:43.326Z,48.95
2017-08-04T10:56:52.639Z,48.95
2017-08-04T10:58:02.303Z,48.93
2017-08-04T10:59:11.632Z,48.47
2017-08-04T11:00:21.575Z,48.66
2017-08-04T11:01:31.592Z,48.93
2017-08-04T11:02:41.249Z,48.93
2017-08-04T11:03:50.921Z,48.93
2017-08-04T11:05:00.862Z,48.75
2017-08-04T11:06:10.836Z,48.95
2017-08-04T11:07:20.490Z,49.02
2017-08-04T11:08:30.743Z,48.75
2017-08-04T11:09:40.728Z,48.93
2017-08-04T11:10:50.673Z,48.95
2017-08-04T11:12:00.606Z,49.05
2017-08-04T11:13:10.320Z,48.73
2017-08-04T11:14:20.586Z,48.83
2017-08-04T11:15:30.503Z,48.66
2017-08-04T11:16:40.440Z,48.64
2017-08-04T11:17:50.667Z,48.93
2017-08-04T11:19:00.919Z,48.83
2017-08-04T11:20:11.177Z,48.73
2017-08-04T11:21:20.829Z,48.93
2017-08-04T11:22:30.447Z,48.93
2017-08-04T11:23:40.403Z,48.73
2017-08-04T11:24:49.709Z,48.73
2017-08-04T11:25:59.630Z,48.93
2017-08-04T11:27:09.553Z,48.73
2017-08-04T11:28:19.523Z,48.93
2017-08-04T11:29:28.223Z,48.83
2017-08-04T11:30:37.539Z,48.83
2017-08-04T11:31:47.469Z,49.02
2017-08-04T11:32:57.698Z,48.73
2017-08-04T11:34:07.622Z,48.93
2017-08-04T11:35:16.929Z,48.73
2017-08-04T11:36:27.164Z,48.73
2017-08-04T11:37:37.079Z,48.64
2017-08-04T11:38:47.309Z,48.93
2017-08-04T11:39:57.561Z,48.73
2017-08-04T11:41:07.504Z,48.83
2017-08-04T11:42:17.122Z,48.83
2017-08-04T11:43:26.430Z,48.95
2017-08-04T11:44:36.051Z,48.64
2017-08-04T11:45:45.979Z,48.93
2017-08-04T11:46:55.609Z,48.83
2017-08-04T11:48:05.534Z,48.64
2017-08-04T11:49:15.503Z,48.73
2017-08-04T11:50:24.819Z,48.83
2017-08-04T11:51:35.064Z,48.64
2017-08-04T11:52:44.983Z,48.64
2017-08-04T11:53:54.932Z,48.73
2017-08-04T11:55:04.561Z,48.73
2017-08-04T11:56:14.861Z,48.83
2017-08-04T11:57:25.105Z,48.83
2017-08-04T11:58:34.711Z,48.83
2017-08-04T11:59:44.651Z,48.73
2017-08-04T12:00:54.285Z,48.64
2017-08-04T12:02:04.513Z,48.83
2017-08-04T12:03:13.826Z,48.83
2017-08-04T12:04:24.061Z,48.93
2017-08-04T12:05:33.972Z,48.73
2017-08-04T12:06:43.903Z,48.73
2017-08-04T12:07:54.160Z,49.02
2017-08-04T12:09:03.876Z,49.05
2017-08-04T12:10:14.163Z,48.83
2017-08-04T12:11:23.817Z,48.95
2017-08-04T12:12:33.774Z,48.93
2017-08-04T12:13:43.438Z,48.75
2017-08-04T12:14:53.386Z,48.85
2017-08-04T12:16:03.705Z,49.05
2017-08-04T12:17:13.717Z,48.75
2017-08-04T12:18:23.400Z,48.83
2017-08-04T12:19:33.371Z,48.85
2017-08-04T12:20:43.029Z,48.83
2017-08-04T12:21:53.020Z,48.64
2017-08-04T12:23:02.671Z,48.66
2017-08-04T12:24:12.318Z,48.85
2017-08-04T12:25:22.580Z,48.93
2017-08-04T12:26:32.210Z,48.83
2017-08-04T12:27:42.465Z,49.12
2017-08-04T12:28:52.706Z,49.12
2017-08-04T12:30:02.680Z,49.22
2017-08-04T12:31:12.954Z,49.02
2017-08-04T12:32:23.289Z,49.22
2017-08-04T12:33:33.276Z,48.64
2017-08-04T12:34:43.543Z,48.44
2017-08-04T12:35:54.020Z,48.64
2017-08-04T12:37:03.964Z,48.93
2017-08-04T12:38:13.941Z,49.02
2017-08-04T12:39:23.887Z,48.83
2017-08-04T12:40:33.851Z,48.54
2017-08-04T12:41:44.146Z,48.93
2017-08-04T12:42:54.420Z,48.44
2017-08-04T12:44:04.374Z,48.54
2017-08-04T12:45:14.301Z,49.02
2017-08-04T12:46:24.543Z,49.02
2017-08-04T12:47:34.493Z,48.83
2017-08-04T12:48:44.434Z,48.93
2017-08-04T12:49:54.679Z,49.02
2017-08-04T12:51:04.295Z,48.44
2017-08-04T12:52:14.523Z,48.83
2017-08-04T12:53:24.465Z,48.64
2017-08-04T12:54:34.415Z,48.83
2017-08-04T12:55:44.055Z,48.95
2017-08-04T12:56:54.306Z,48.85
2017-08-04T12:58:04.236Z,48.73
2017-08-04T12:59:14.474Z,49.05
2017-08-04T13:00:24.249Z,48.95
2017-08-04T13:01:34.212Z,48.95
2017-08-04T13:02:44.492Z,48.93
2017-08-04T13:03:54.771Z,49.02
2017-08-04T13:05:05.068Z,49.02
2017-08-04T13:06:15.285Z,48.73
2017-08-04T13:07:25.200Z,48.54
2017-08-04T13:08:35.416Z,48.93
2017-08-04T13:09:45.337Z,48.44
2017-08-04T13:10:54.949Z,49.12
2017-08-04T13:12:05.200Z,49.02
2017-08-04T13:13:15.136Z,49.15
2017-08-04T13:14:24.873Z,49.02
2017-08-04T13:15:34.790Z,48.64
2017-08-04T13:16:43.815Z,49.22
2017-08-04T13:17:54.053Z,49.22
2017-08-04T13:19:03.967Z,49.22
2017-08-04T13:20:13.901Z,49.22
2017-08-04T13:21:23.531Z,49.22
2017-08-04T13:22:33.752Z,49.12
2017-08-04T13:23:43.388Z,49.22
2017-08-04T13:24:53.019Z,49.22
2017-08-04T13:26:02.930Z,49.02
2017-08-04T13:27:12.241Z,49.22
2017-08-04T13:28:22.152Z,48.93
2017-08-04T13:29:32.375Z,49.12
2017-08-04T13:30:41.672Z,49.02
2017-08-04T13:31:50.987Z,49.22
2017-08-04T13:33:00.920Z,49.22
2017-08-04T13:34:10.838Z,49.22
2017-08-04T13:35:20.466Z,49.12
2017-08-04T13:36:30.093Z,48.93
2017-08-04T13:37:40.021Z,49.02
2017-08-04T13:38:49.932Z,48.93
2017-08-04T13:40:00.183Z,48.83
2017-08-04T13:41:10.120Z,48.83
2017-08-04T13:42:20.039Z,48.83
2017-08-04T13:43:30.269Z,48.83
2017-08-04T13:44:40.189Z,48.93
2017-08-04T13:45:50.408Z,48.83
2017-08-04T13:47:00.034Z,48.93
2017-08-04T13:48:09.640Z,48.93
2017-08-04T13:49:19.560Z,48.83
2017-08-04T13:50:29.790Z,48.93
2017-08-04T13:51:39.395Z,49.02
2017-08-04T13:52:49.329Z,49.22
2017-08-04T13:53:58.940Z,49.22
2017-08-04T13:55:08.579Z,49.12
2017-08-04T13:56:18.495Z,49.12
2017-08-04T13:57:28.430Z,49.22
2017-08-04T13:58:38.059Z,49.22
2017-08-04T13:59:47.994Z,49.22
2017-08-04T14:00:57.310Z,49.32
2017-08-04T14:02:07.259Z,49.22
2017-08-04T14:03:17.197Z,49.32
2017-08-04T14:04:27.116Z,49.22
2017-08-04T14:05:37.045Z,49.22
2017-08-04T14:06:46.648Z,49.02
2017-08-04T14:07:56.252Z,49.02
2017-08-04T14:09:06.498Z,48.93
2017-08-04T14:10:16.122Z,48.93
2017-08-04T14:11:26.053Z,48.93
2017-08-04T14:12:36.303Z,49.12
2017-08-04T14:13:45.920Z,48.93
2017-08-04T14:14:56.154Z,48.93
2017-08-04T14:16:06.123Z,48.93
2017-08-04T14:17:16.099Z,49.02
2017-08-04T14:18:26.048Z,49.02
2017-08-04T14:19:35.362Z,49.02
2017-08-04T14:20:45.614Z,49.02
2017-08-04T14:21:54.667Z,48.83
2017-08-04T14:23:04.891Z,49.02
2017-08-04T14:24:14.816Z,49.02
2017-08-04T14:25:25.038Z,49.12
2017-08-04T14:26:34.654Z,48.93
2017-08-04T14:27:44.584Z,49.22
2017-08-04T14:28:54.506Z,49.02
2017-08-04T14:30:04.757Z,49.02
2017-08-04T14:31:14.999Z,48.93
2017-08-04T14:32:25.219Z,48.93
2017-08-04T14:33:35.137Z,48.93
2017-08-04T14:34:45.359Z,49.02
2017-08-04T14:35:54.672Z,48.93
2017-08-04T14:37:04.317Z,48.83
2017-08-04T14:38:14.536Z,49.02
2017-08-04T14:39:24.156Z,48.93
2017-08-04T14:40:34.086Z,48.93
2017-08-04T14:41:43.717Z,48.83
2017-08-04T14:42:53.641Z,48.93
2017-08-04T14:44:03.563Z,48.93
2017-08-04T14:45:13.187Z,48.93
2017-08-04T14:46:22.818Z,48.93
2017-08-04T14:47:32.753Z,49.02
2017-08-04T14:48:42.980Z,48.93
2017-08-04T14:49:53.206Z,48.93
2017-08-04T14:51:02.513Z,49.02
2017-08-04T14:52:12.440Z,49.02
2017-08-04T14:53:22.353Z,49.61
2017-08-04T14:54:32.267Z,49.02
2017-08-04T14:55:42.175Z,49.02
2017-08-04T14:56:52.090Z,49.02
2017-08-04T14:58:01.715Z,48.73
2017-08-04T14:59:11.665Z,49.02
2017-08-04T15:00:21.602Z,49.22
2017-08-04T15:01:31.529Z,49.02
2017-08-04T15:02:41.450Z,49.22